Time;durP1;ratioP1;P1;durP2;ratioP2;P2;SDS_P1;SDS_P2;PMS_P1;PMS_P2;Temp;Humidity;BMP_temperature;BMP_pressure;BME280_temperature;BME280_humidity;BME280_pressure;Samples;Min_cycle;Max_cycle;Signal;HPM_P1;HPM_P2
2023/04/18 00:01:28;;;;;;;5.93;4.40;;;11.30;99.90;;;;;;5084704;28;20189;-71
2023/04/18 00:03:56;;;;;;;9.17;5.70;;;11.40;99.90;;;;;;5086317;28;20715;-71
2023/04/18 00:06:24;;;;;;;9.40;6.13;;;11.30;99.90;;;;;;5078126;28;20189;-71
2023/04/18 00:08:51;;;;;;;6.37;4.70;;;11.30;99.90;;;;;;5068279;28;20337;-71
2023/04/18 00:11:19;;;;;;;7.87;5.60;;;11.30;99.90;;;;;;5082354;28;20212;-70
2023/04/18 00:13:47;;;;;;;7.00;4.83;;;11.30;99.90;;;;;;5086521;28;20200;-69
2023/04/18 00:19:18;;;;;;;7.07;5.30;;;11.30;99.90;;;;;;5061364;28;20204;-71
2023/04/18 00:21:46;;;;;;;7.80;4.43;;;11.30;99.90;;;;;;5079313;28;20198;-70
2023/04/18 00:24:13;;;;;;;5.83;4.43;;;11.30;99.90;;;;;;5089793;28;20675;-71
2023/04/18 00:26:40;;;;;;;6.80;4.77;;;11.30;99.90;;;;;;5074551;28;20214;-71
2023/04/18 00:29:07;;;;;;;5.80;4.10;;;11.30;99.90;;;;;;5059872;28;20204;-70
2023/04/18 00:31:35;;;;;;;3.83;3.50;;;11.30;99.90;;;;;;5078090;28;20739;-70
2023/04/18 00:34:02;;;;;;;6.00;3.60;;;11.30;99.90;;;;;;5068914;28;20254;-71
2023/04/18 00:36:31;;;;;;;6.47;4.83;;;11.20;99.90;;;;;;5083404;28;20238;-69
2023/04/18 00:38:58;;;;;;;4.70;4.03;;;11.30;99.90;;;;;;5072515;28;20200;-69
2023/04/18 00:41:27;;;;;;;4.50;3.57;;;11.30;99.90;;;;;;5075751;28;20214;-70
2023/04/18 00:43:54;;;;;;;3.93;3.37;;;11.30;99.90;;;;;;5083023;28;20197;-70
2023/04/18 00:46:21;;;;;;;4.23;3.77;;;11.20;99.90;;;;;;5082365;28;20200;-70
2023/04/18 00:48:49;;;;;;;5.07;4.50;;;11.20;99.90;;;;;;5075676;28;20192;-71
2023/04/18 00:51:17;;;;;;;6.80;4.80;;;11.30;99.90;;;;;;5066609;28;20226;-71
2023/04/18 00:53:46;;;;;;;6.37;4.50;;;11.30;99.90;;;;;;5068738;28;20312;-70
2023/04/18 00:56:13;;;;;;;8.30;5.10;;;11.30;99.90;;;;;;5080863;28;20191;-69
2023/04/18 00:58:40;;;;;;;6.57;5.10;;;11.40;99.90;;;;;;5076673;28;20276;-70
2023/04/18 01:01:07;;;;;;;9.13;5.77;;;11.40;99.90;;;;;;5080652;28;20219;-70
2023/04/18 01:03:36;;;;;;;7.13;4.90;;;11.40;99.90;;;;;;5079941;28;20231;-70
2023/04/18 01:06:03;;;;;;;5.23;4.20;;;11.40;99.90;;;;;;5065699;28;20201;-70
2023/04/18 01:08:33;;;;;;;5.03;3.93;;;11.40;99.90;;;;;;5072832;28;20195;-70
2023/04/18 01:11:02;;;;;;;8.40;5.70;;;11.40;99.90;;;;;;5066651;28;20264;-70
2023/04/18 01:13:29;;;;;;;10.50;5.93;;;11.40;99.90;;;;;;5071436;28;20201;-70
2023/04/18 01:15:57;;;;;;;5.07;4.40;;;11.40;99.90;;;;;;5057871;28;20205;-70
2023/04/18 01:18:26;;;;;;;10.37;6.63;;;11.30;99.90;;;;;;5078779;28;20558;-70
2023/04/18 01:24:37;;;;;;;8.80;5.00;;;11.30;99.90;;;;;;5077348;28;20177;-69
2023/04/18 01:27:04;;;;;;;10.10;5.60;;;11.30;99.90;;;;;;5081168;28;20310;-69
2023/04/18 01:29:34;;;;;;;12.50;7.10;;;11.40;99.90;;;;;;5062637;28;20212;-69
2023/04/18 01:32:02;;;;;;;7.77;5.33;;;11.30;99.90;;;;;;5078759;28;20266;-70
2023/04/18 01:34:29;;;;;;;8.27;4.93;;;11.30;99.90;;;;;;5082662;28;20192;-70
2023/04/18 01:36:56;;;;;;;4.90;3.87;;;11.40;99.90;;;;;;5063101;28;20203;-70
2023/04/18 01:39:23;;;;;;;8.63;5.80;;;11.30;99.90;;;;;;5057088;28;20201;-69
2023/04/18 01:41:53;;;;;;;6.63;4.50;;;11.30;99.90;;;;;;5080707;28;20192;-70
2023/04/18 01:44:20;;;;;;;9.93;6.03;;;11.30;99.90;;;;;;5083148;28;20195;-69
2023/04/18 01:46:48;;;;;;;6.47;4.90;;;11.30;99.90;;;;;;5063020;28;20231;-70
2023/04/18 01:49:16;;;;;;;6.23;4.30;;;11.30;99.90;;;;;;5068785;28;20204;-69
2023/04/18 01:51:43;;;;;;;5.70;4.47;;;11.30;99.90;;;;;;5077730;28;20219;-70
2023/04/18 01:54:10;;;;;;;10.20;6.20;;;11.30;99.90;;;;;;5066371;28;20546;-69
2023/04/18 01:56:37;;;;;;;8.93;5.77;;;11.30;99.90;;;;;;5062359;28;20212;-69
2023/04/18 01:59:06;;;;;;;10.80;6.10;;;11.30;99.90;;;;;;5068908;28;20205;-70
2023/04/18 02:01:33;;;;;;;8.87;5.80;;;11.30;99.90;;;;;;5062766;28;20193;-69
2023/04/18 02:04:00;;;;;;;12.00;6.93;;;11.30;99.90;;;;;;5075741;28;20263;-70
2023/04/18 02:06:27;;;;;;;11.30;7.27;;;11.30;99.90;;;;;;5065041;28;20223;-69
2023/04/18 02:08:54;;;;;;;15.93;7.67;;;11.40;99.90;;;;;;5072725;28;20285;-69
2023/04/18 02:11:25;;;;;;;11.13;6.47;;;11.40;99.90;;;;;;5060772;28;20215;-70
2023/04/18 02:13:52;;;;;;;13.67;7.30;;;11.40;99.90;;;;;;5081113;28;20719;-70
2023/04/18 02:16:21;;;;;;;12.27;7.90;;;11.40;99.90;;;;;;5082069;28;20211;-71
2023/04/18 02:18:51;;;;;;;8.03;5.10;;;11.40;99.90;;;;;;5066026;28;20191;-71
2023/04/18 02:21:18;;;;;;;7.17;5.30;;;11.40;99.90;;;;;;5058606;28;20280;-71
2023/04/18 02:23:45;;;;;;;12.23;7.27;;;11.40;99.90;;;;;;5073107;28;20686;-71
2023/04/18 02:26:12;;;;;;;7.00;5.40;;;11.40;99.90;;;;;;5057534;28;20220;-69
2023/04/18 02:28:39;;;;;;;6.13;4.70;;;11.40;99.90;;;;;;5067656;28;20198;-71
2023/04/18 02:31:13;;;;;;;12.47;6.70;;;11.40;99.90;;;;;;5063273;28;20216;-70
2023/04/18 02:33:42;;;;;;;15.03;8.50;;;11.40;99.90;;;;;;5058422;28;20287;-68
2023/04/18 02:36:09;;;;;;;10.47;6.67;;;11.40;99.90;;;;;;5079278;28;20193;-69
2023/04/18 02:38:36;;;;;;;11.27;7.23;;;11.40;99.90;;;;;;5078274;28;20193;-69
2023/04/18 02:41:04;;;;;;;14.73;8.80;;;11.40;99.90;;;;;;5067773;28;20219;-69
2023/04/18 02:43:31;;;;;;;12.33;8.00;;;11.40;99.90;;;;;;5078065;28;20230;-69
2023/04/18 02:45:58;;;;;;;19.37;9.10;;;11.30;99.90;;;;;;5060799;28;20624;-69
2023/04/18 02:48:26;;;;;;;14.40;8.73;;;11.30;99.90;;;;;;5064397;28;20688;-71
2023/04/18 02:51:02;;;;;;;13.17;8.37;;;11.30;99.90;;;;;;5061373;28;20215;-71
2023/04/18 02:53:30;;;;;;;14.80;8.43;;;11.40;99.90;;;;;;5061420;28;20620;-70
2023/04/18 02:55:58;;;;;;;11.43;7.57;;;11.40;99.90;;;;;;5063044;28;20213;-69
2023/04/18 02:58:39;;;;;;;13.87;8.10;;;11.40;99.90;;;;;;5061876;28;20192;-69
2023/04/18 03:01:24;;;;;;;19.57;8.90;;;11.40;99.90;;;;;;5067645;28;20261;-71
2023/04/18 03:03:57;;;;;;;17.43;8.53;;;11.40;99.90;;;;;;5067952;28;20733;-69
2023/04/18 03:06:35;;;;;;;10.93;7.50;;;11.30;99.90;;;;;;5068058;28;20214;-69
2023/04/18 03:09:03;;;;;;;9.70;6.90;;;11.30;99.90;;;;;;5072170;28;20204;-69
2023/04/18 03:11:32;;;;;;;14.63;8.70;;;11.30;99.90;;;;;;5062110;28;20223;-70
2023/04/18 03:13:59;;;;;;;10.70;6.90;;;11.30;99.90;;;;;;5073303;28;20628;-70
2023/04/18 03:16:33;;;;;;;15.70;8.17;;;11.30;99.90;;;;;;5068525;28;20507;-69
2023/04/18 03:19:01;;;;;;;19.47;9.97;;;11.30;99.90;;;;;;5059148;28;20307;-71
2023/04/18 03:21:29;;;;;;;16.40;9.67;;;11.30;99.90;;;;;;5061226;28;20211;-70
2023/04/18 03:23:59;;;;;;;16.77;9.33;;;11.30;99.90;;;;;;5058882;28;20251;-70
2023/04/18 03:26:28;;;;;;;16.70;8.13;;;11.30;99.90;;;;;;5066299;28;20208;-70
2023/04/18 03:28:56;;;;;;;10.93;7.10;;;11.30;99.90;;;;;;5061023;28;20685;-67
2023/04/18 03:31:23;;;;;;;13.57;8.47;;;11.30;99.90;;;;;;5075608;28;20304;-68
2023/04/18 03:33:51;;;;;;;15.10;8.90;;;11.30;99.90;;;;;;5074454;28;20218;-70
2023/04/18 03:36:20;;;;;;;11.30;7.17;;;11.30;99.90;;;;;;5065410;28;20306;-70
2023/04/18 03:38:47;;;;;;;15.37;9.17;;;11.30;99.90;;;;;;5062902;28;20212;-69
2023/04/18 03:41:16;;;;;;;17.30;9.37;;;11.30;99.90;;;;;;5060998;28;20199;-69
2023/04/18 03:43:43;;;;;;;15.60;8.67;;;11.30;99.90;;;;;;5068017;28;20543;-69
2023/04/18 03:46:10;;;;;;;15.97;9.20;;;11.40;99.90;;;;;;5078642;28;20211;-68
2023/04/18 03:48:38;;;;;;;12.57;8.23;;;11.40;99.90;;;;;;5065331;28;20215;-69
2023/04/18 03:51:11;;;;;;;12.87;6.93;;;11.30;99.90;;;;;;5073858;28;20218;-69
2023/04/18 03:53:39;;;;;;;18.53;9.37;;;11.30;99.90;;;;;;5070364;28;20248;-69
2023/04/18 03:56:06;;;;;;;18.33;9.70;;;11.30;99.90;;;;;;5063508;28;20247;-71
2023/04/18 03:58:57;;;;;;;20.10;11.00;;;11.30;99.90;;;;;;5057550;28;20200;-69
2023/04/18 04:01:25;;;;;;;15.80;8.67;;;11.40;99.90;;;;;;5076047;28;20242;-70
2023/04/18 04:03:53;;;;;;;9.73;6.50;;;11.30;99.90;;;;;;5061957;28;20326;-71
2023/04/18 04:06:21;;;;;;;15.50;9.07;;;11.30;99.90;;;;;;5064339;28;20207;-71
2023/04/18 04:08:48;;;;;;;14.00;7.80;;;11.30;99.90;;;;;;5074407;28;20217;-72
2023/04/18 04:11:20;;;;;;;15.23;8.73;;;11.30;99.90;;;;;;5057924;28;20210;-71
2023/04/18 04:13:47;;;;;;;29.17;9.57;;;11.30;99.90;;;;;;5063607;28;20235;-70
2023/04/18 04:16:19;;;;;;;15.27;8.03;;;11.30;99.90;;;;;;5052225;28;20205;-69
2023/04/18 04:18:49;;;;;;;12.97;7.63;;;11.30;99.90;;;;;;5061266;28;20536;-72
2023/04/18 04:21:17;;;;;;;13.57;8.30;;;11.30;99.90;;;;;;5064633;28;20681;-72
2023/04/18 04:23:51;;;;;;;18.60;8.97;;;11.20;99.90;;;;;;5063658;28;20749;-71
2023/04/18 04:26:31;;;;;;;12.87;8.40;;;11.30;99.90;;;;;;5053371;28;20214;-71
2023/04/18 04:29:04;;;;;;;17.13;9.17;;;11.30;99.90;;;;;;5073182;28;20200;-71
2023/04/18 04:31:35;;;;;;;14.23;8.97;;;11.30;99.90;;;;;;5064553;28;20207;-70
2023/04/18 04:34:03;;;;;;;14.90;8.70;;;11.30;99.90;;;;;;5078040;28;20282;-70
2023/04/18 04:36:32;;;;;;;14.97;8.33;;;11.30;99.90;;;;;;5061811;28;20299;-71
2023/04/18 04:39:03;;;;;;;13.00;8.53;;;11.30;99.90;;;;;;5064319;28;20261;-71
2023/04/18 04:41:52;;;;;;;14.43;8.80;;;11.30;99.90;;;;;;5083922;28;20259;-71
2023/04/18 04:44:21;;;;;;;15.07;9.00;;;11.30;99.90;;;;;;5067691;28;20213;-71
2023/04/18 04:46:51;;;;;;;13.67;7.37;;;11.30;99.90;;;;;;5068707;28;20230;-70
2023/04/18 04:49:22;;;;;;;15.53;8.13;;;11.30;99.90;;;;;;5056487;28;20296;-70
2023/04/18 04:51:49;;;;;;;8.70;6.23;;;11.30;99.90;;;;;;5060316;28;20235;-71
2023/04/18 04:54:16;;;;;;;10.73;6.57;;;11.30;99.90;;;;;;5065405;28;20223;-70
2023/04/18 04:56:44;;;;;;;14.20;7.00;;;11.40;99.90;;;;;;5080003;28;20197;-71
2023/04/18 04:59:11;;;;;;;8.47;5.80;;;11.40;99.90;;;;;;5059344;28;20197;-72
2023/04/18 05:01:45;;;;;;;9.37;6.30;;;11.40;99.90;;;;;;5073596;28;20194;-72
2023/04/18 05:04:13;;;;;;;9.07;5.40;;;11.50;99.90;;;;;;5057723;28;20242;-70
2023/04/18 05:06:41;;;;;;;12.87;7.43;;;11.50;99.90;;;;;;5078208;28;20203;-70
2023/04/18 05:09:08;;;;;;;14.90;7.07;;;11.60;99.90;;;;;;5073153;28;20309;-71
2023/04/18 05:11:35;;;;;;;10.00;6.63;;;11.60;99.90;;;;;;5077897;28;20215;-70
2023/04/18 05:14:02;;;;;;;9.73;5.67;;;11.60;99.90;;;;;;5073280;28;20267;-69
2023/04/18 05:16:29;;;;;;;12.23;6.60;;;11.60;99.90;;;;;;5074669;28;20685;-72
2023/04/18 05:18:56;;;;;;;9.63;5.73;;;11.60;99.90;;;;;;5085238;28;20629;-72
2023/04/18 05:21:26;;;;;;;10.80;6.67;;;11.60;99.90;;;;;;5072940;28;20606;-71
2023/04/18 05:23:53;;;;;;;8.63;6.10;;;11.70;99.90;;;;;;5074325;28;20196;-70
2023/04/18 05:26:20;;;;;;;10.03;6.70;;;11.70;99.90;;;;;;5062157;28;20195;-71
2023/04/18 05:28:47;;;;;;;8.70;5.87;;;11.70;99.90;;;;;;5076702;28;20541;-71
2023/04/18 05:31:15;;;;;;;8.93;5.47;;;11.80;99.90;;;;;;5081031;28;20195;-69
2023/04/18 05:33:42;;;;;;;14.13;6.67;;;11.80;99.90;;;;;;5074243;28;20220;-71
2023/04/18 05:36:09;;;;;;;7.77;5.63;;;11.80;99.90;;;;;;5083458;28;20564;-70
2023/04/18 05:38:37;;;;;;;15.67;7.33;;;11.90;99.90;;;;;;5063039;28;20563;-70
2023/04/18 05:41:05;;;;;;;15.53;7.53;;;11.90;99.90;;;;;;5079587;28;20196;-70
2023/04/18 05:43:32;;;;;;;14.23;7.60;;;12.00;99.90;;;;;;5074268;28;20194;-70
2023/04/18 05:45:59;;;;;;;26.27;10.23;;;12.00;99.90;;;;;;5065617;28;20217;-71
2023/04/18 05:48:27;;;;;;;20.33;9.37;;;12.00;99.90;;;;;;5081902;28;20793;-71
2023/04/18 05:50:54;;;;;;;19.87;10.40;;;12.00;99.90;;;;;;5072486;28;20200;-71
2023/04/18 05:53:21;;;;;;;20.73;9.77;;;12.00;99.90;;;;;;5079940;28;20251;-71
2023/04/18 05:55:49;;;;;;;16.77;10.00;;;12.00;99.90;;;;;;5067614;28;20208;-71
2023/04/18 05:58:16;;;;;;;22.20;8.73;;;12.10;99.90;;;;;;5073818;28;20190;-71
2023/04/18 06:00:44;;;;;;;16.77;9.00;;;12.10;99.90;;;;;;5083613;28;20207;-71
2023/04/18 06:03:11;;;;;;;14.53;8.30;;;12.10;99.90;;;;;;5072251;28;20631;-72
2023/04/18 06:05:39;;;;;;;21.17;11.43;;;12.20;99.90;;;;;;5073501;28;20189;-71
2023/04/18 06:08:07;;;;;;;12.27;7.50;;;12.20;99.90;;;;;;5078037;28;20289;-71
2023/04/18 06:10:34;;;;;;;23.10;11.10;;;12.20;99.90;;;;;;5075089;28;20193;-71
2023/04/18 06:13:02;;;;;;;14.57;8.90;;;12.20;99.90;;;;;;5078088;28;20215;-71
2023/04/18 06:15:30;;;;;;;25.60;11.97;;;12.30;99.90;;;;;;5080364;28;20257;-71
2023/04/18 06:17:57;;;;;;;19.77;10.63;;;12.30;99.90;;;;;;5078271;28;20205;-69
2023/04/18 06:20:24;;;;;;;15.13;8.83;;;12.30;99.90;;;;;;5073661;28;20197;-70
2023/04/18 06:22:51;;;;;;;12.97;7.87;;;12.30;99.90;;;;;;5079153;28;20196;-70
2023/04/18 06:25:18;;;;;;;13.70;8.20;;;12.30;99.90;;;;;;5078477;28;20653;-70
2023/04/18 06:27:46;;;;;;;12.20;8.07;;;12.40;99.90;;;;;;5080424;28;20268;-69
2023/04/18 06:30:15;;;;;;;25.07;11.17;;;12.40;99.90;;;;;;5070688;28;20229;-70
2023/04/18 06:32:42;;;;;;;19.10;9.80;;;12.40;99.90;;;;;;5074876;28;20223;-71
2023/04/18 06:35:09;;;;;;;16.40;9.43;;;12.40;99.90;;;;;;5070762;28;20200;-70
2023/04/18 06:37:37;;;;;;;14.30;7.67;;;12.40;99.90;;;;;;5070361;28;20196;-68
2023/04/18 06:40:04;;;;;;;18.10;8.10;;;12.50;99.90;;;;;;5079454;28;20228;-69
2023/04/18 06:42:31;;;;;;;24.73;10.80;;;12.40;99.90;;;;;;5074565;28;20539;-70
2023/04/18 06:44:59;;;;;;;22.63;10.43;;;12.50;99.90;;;;;;5082153;28;20199;-69
2023/04/18 06:47:27;;;;;;;18.57;10.20;;;12.50;99.90;;;;;;5079503;28;20210;-69
2023/04/18 06:49:55;;;;;;;15.00;7.90;;;12.50;99.90;;;;;;5073988;28;20789;-69
2023/04/18 06:52:22;;;;;;;14.87;8.07;;;12.60;99.90;;;;;;5070565;28;20220;-70
2023/04/18 06:54:49;;;;;;;17.07;8.60;;;12.60;99.90;;;;;;5056664;28;20205;-70
2023/04/18 06:57:16;;;;;;;15.43;8.00;;;12.60;99.90;;;;;;5070781;28;20188;-70
2023/04/18 06:59:43;;;;;;;16.87;7.70;;;12.60;99.90;;;;;;5075168;28;20197;-69
2023/04/18 07:02:11;;;;;;;11.67;7.03;;;12.70;99.90;;;;;;5078083;28;20680;-69
2023/04/18 07:04:40;;;;;;;13.80;7.00;;;12.70;99.90;;;;;;5060342;28;20232;-69
2023/04/18 07:07:07;;;;;;;17.90;7.90;;;12.80;99.90;;;;;;5080509;28;20363;-70
2023/04/18 07:09:34;;;;;;;27.03;9.27;;;12.90;99.90;;;;;;5064501;28;20201;-69
2023/04/18 07:12:01;;;;;;;21.00;8.20;;;12.90;99.90;;;;;;5079913;28;20200;-70
2023/04/18 07:14:29;;;;;;;16.80;7.60;;;13.00;99.90;;;;;;5076893;28;20205;-69
2023/04/18 07:16:57;;;;;;;9.93;6.10;;;13.10;99.90;;;;;;5074160;28;20205;-70
2023/04/18 07:19:24;;;;;;;7.97;5.40;;;13.20;99.90;;;;;;5070672;28;20196;-69
2023/04/18 07:21:54;;;;;;;13.07;5.97;;;13.20;99.90;;;;;;5080935;28;20275;-70
2023/04/18 07:24:23;;;;;;;13.40;4.90;;;13.30;99.90;;;;;;5061104;28;20208;-70
2023/04/18 07:26:50;;;;;;;15.30;5.63;;;13.30;99.90;;;;;;5076379;28;20545;-69
2023/04/18 07:29:18;;;;;;;10.43;5.63;;;13.40;99.90;;;;;;5076371;28;20229;-68
2023/04/18 07:31:45;;;;;;;14.27;5.80;;;13.40;99.90;;;;;;5071801;28;20312;-69
2023/04/18 07:34:13;;;;;;;7.20;5.00;;;13.50;99.90;;;;;;5072602;28;20214;-69
2023/04/18 07:36:41;;;;;;;5.40;4.60;;;13.50;99.90;;;;;;5078783;28;20834;-69
2023/04/18 07:39:10;;;;;;;7.73;5.40;;;13.60;99.90;;;;;;5062733;28;20272;-68
2023/04/18 07:41:37;;;;;;;9.83;5.17;;;13.20;99.90;;;;;;5074122;28;20193;-69
2023/04/18 07:44:05;;;;;;;7.30;5.07;;;13.70;99.90;;;;;;5069375;28;20186;-69
2023/04/18 07:46:32;;;;;;;7.80;4.70;;;13.70;99.90;;;;;;5064608;28;20198;-69
2023/04/18 07:49:00;;;;;;;14.63;5.83;;;13.70;99.90;;;;;;5075710;28;22515;-70
2023/04/18 07:51:30;;;;;;;10.37;5.27;;;13.70;99.90;;;;;;5062224;28;20206;-69
2023/04/18 07:53:57;;;;;;;4.20;3.67;;;13.60;99.90;;;;;;5075714;28;20641;-68
2023/04/18 07:56:26;;;;;;;3.60;3.30;;;13.60;99.90;;;;;;5057145;28;20218;-68
2023/04/18 07:58:53;;;;;;;9.00;4.30;;;13.60;99.90;;;;;;5069384;28;20191;-69
2023/04/18 08:01:25;;;;;;;13.23;5.03;;;13.70;99.90;;;;;;5077133;28;20282;-67
2023/04/18 08:03:53;;;;;;;11.17;5.83;;;13.70;99.90;;;;;;5076248;28;20224;-69
2023/04/18 08:06:21;;;;;;;15.47;5.50;;;13.80;99.90;;;;;;5068345;28;20198;-68
2023/04/18 08:08:48;;;;;;;11.87;5.00;;;13.80;99.90;;;;;;5079058;28;20191;-70
2023/04/18 08:11:15;;;;;;;10.47;4.90;;;13.80;99.90;;;;;;5064013;28;20202;-69
2023/04/18 08:13:44;;;;;;;5.93;4.03;;;13.80;99.90;;;;;;5084290;28;20211;-66
2023/04/18 08:16:11;;;;;;;6.63;4.10;;;13.70;99.90;;;;;;5075085;28;20191;-69
2023/04/18 08:18:38;;;;;;;9.33;4.63;;;13.70;99.90;;;;;;5075578;28;20204;-68
2023/04/18 08:21:05;;;;;;;16.23;6.57;;;13.70;99.90;;;;;;5081765;28;20214;-67
2023/04/18 08:23:34;;;;;;;17.43;7.57;;;13.70;99.90;;;;;;5083540;28;20274;-69
2023/04/18 08:26:01;;;;;;;13.70;7.03;;;13.70;99.90;;;;;;5079926;28;20209;-68
2023/04/18 08:28:29;;;;;;;10.23;6.20;;;13.60;99.90;;;;;;5079371;28;20296;-69
2023/04/18 08:30:57;;;;;;;11.43;6.37;;;13.60;99.90;;;;;;5079487;28;20210;-68
2023/04/18 08:33:25;;;;;;;7.37;5.27;;;13.60;99.90;;;;;;5070477;28;20207;-67
2023/04/18 08:35:52;;;;;;;7.37;4.40;;;13.60;99.90;;;;;;5074800;28;20202;-68
2023/04/18 08:38:19;;;;;;;7.43;5.03;;;13.60;99.90;;;;;;5077818;28;20195;-68
2023/04/18 08:40:47;;;;;;;15.00;5.73;;;13.70;99.90;;;;;;5079839;28;20642;-68
2023/04/18 08:43:15;;;;;;;10.80;5.80;;;13.80;99.90;;;;;;5076304;28;20280;-69
2023/04/18 08:45:42;;;;;;;9.57;5.40;;;13.80;99.90;;;;;;5074030;28;20205;-68
2023/04/18 08:48:13;;;;;;;8.03;4.77;;;13.80;99.90;;;;;;5063388;28;20213;-70
2023/04/18 08:50:41;;;;;;;7.20;4.27;;;13.80;99.90;;;;;;5073935;28;20206;-69
2023/04/18 08:53:09;;;;;;;9.13;4.00;;;13.80;99.90;;;;;;5066646;28;20220;-69
2023/04/18 08:55:36;;;;;;;4.60;3.87;;;13.80;99.90;;;;;;5067792;28;20213;-69
2023/04/18 08:58:05;;;;;;;8.27;4.67;;;13.80;99.90;;;;;;5081373;28;20305;-69
2023/04/18 09:00:34;;;;;;;5.37;3.87;;;13.80;99.90;;;;;;5073001;28;20228;-68
2023/04/18 09:03:02;;;;;;;3.57;3.10;;;13.80;99.90;;;;;;5074003;28;20305;-68
2023/04/18 09:05:31;;;;;;;5.00;4.20;;;13.90;99.90;;;;;;5078035;28;20191;-69
2023/04/18 09:08:24;;;;;;;3.70;3.13;;;13.90;99.90;;;;;;5107220;27;21105;-70
2023/04/18 09:10:52;;;;;;;8.57;3.50;;;14.20;99.90;;;;;;5108265;28;20307;-71
2023/04/18 09:13:38;;;;;;;5.33;3.27;;;14.50;99.90;;;;;;5091965;28;20221;-68
2023/04/18 09:16:10;;;;;;;5.30;3.47;;;14.70;99.90;;;;;;5081660;28;20194;-69
2023/04/18 09:18:37;;;;;;;5.00;2.80;;;15.00;99.90;;;;;;5097382;28;20195;-69
2023/04/18 09:21:18;;;;;;;2.70;2.50;;;15.10;99.90;;;;;;5078781;28;20207;-70
2023/04/18 09:23:46;;;;;;;10.00;3.10;;;15.20;99.90;;;;;;5075691;28;20218;-69
2023/04/18 09:26:32;;;;;;;17.23;3.37;;;15.30;99.90;;;;;;5085334;28;20212;-68
2023/04/18 09:28:59;;;;;;;4.70;2.67;;;15.40;99.90;;;;;;5077754;28;20208;-68
2023/04/18 09:31:29;;;;;;;4.07;2.60;;;15.70;99.90;;;;;;5103289;28;20219;-68
2023/04/18 09:33:56;;;;;;;5.90;3.47;;;15.90;99.90;;;;;;5101792;28;20208;-68
2023/04/18 09:36:27;;;;;;;7.00;3.73;;;16.10;99.90;;;;;;5085179;28;20197;-69
2023/04/18 09:38:58;;;;;;;5.73;3.10;;;16.20;99.90;;;;;;5099706;28;20192;-68
2023/04/18 09:41:25;;;;;;;6.57;3.50;;;16.30;99.90;;;;;;5093226;28;20314;-69
2023/04/18 09:44:10;;;;;;;12.93;4.90;;;16.30;99.90;;;;;;5083391;28;20665;-69
2023/04/18 09:46:37;;;;;;;6.57;3.47;;;16.50;99.90;;;;;;5096650;28;20233;-68
2023/04/18 09:49:07;;;;;;;4.77;3.50;;;16.60;99.90;;;;;;5082101;28;20622;-68
2023/04/18 09:51:35;;;;;;;3.60;3.20;;;16.60;99.70;;;;;;5101854;28;20227;-68
2023/04/18 09:54:05;;;;;;;4.03;2.70;;;16.70;99.50;;;;;;5087624;28;20204;-68
2023/04/18 09:56:36;;;;;;;5.10;2.70;;;16.90;99.50;;;;;;5091693;28;20264;-67
2023/04/18 09:59:08;;;;;;;10.00;4.50;;;17.00;99.30;;;;;;5082373;28;20781;-68
2023/04/18 10:01:36;;;;;;;15.83;3.90;;;17.10;98.80;;;;;;5080457;28;20205;-68
2023/04/18 10:04:05;;;;;;;7.77;4.00;;;17.20;98.60;;;;;;5104586;28;20667;-74
2023/04/18 10:06:36;;;;;;;7.63;5.03;;;17.30;98.30;;;;;;5101932;28;20228;-74
2023/04/18 10:09:05;;;;;;;6.73;3.43;;;17.20;97.40;;;;;;5098344;28;20211;-73
2023/04/18 10:11:32;;;;;;;7.57;4.20;;;17.10;97.40;;;;;;5095756;28;20237;-73
2023/04/18 10:14:04;;;;;;;3.67;3.37;;;17.20;97.50;;;;;;5085016;28;20204;-74
2023/04/18 10:16:32;;;;;;;3.57;2.70;;;17.20;97.50;;;;;;5099014;28;20203;-72
2023/04/18 10:19:20;;;;;;;2.90;2.70;;;17.20;97.50;;;;;;5090435;28;20226;-74
2023/04/18 10:21:52;;;;;;;4.80;2.77;;;17.20;97.50;;;;;;5075551;28;20282;-74
2023/04/18 10:24:58;;;;;;;3.03;2.73;;;17.30;97.50;;;;;;5085598;28;20855;-74
2023/04/18 10:27:59;;;;;;;4.23;3.03;;;17.30;97.50;;;;;;5078737;28;20338;-73
2023/04/18 10:30:49;;;;;;;5.97;3.60;;;17.30;97.30;;;;;;5066087;28;20288;-73
2023/04/18 10:33:29;;;;;;;3.77;3.40;;;17.30;97.10;;;;;;5083867;28;20672;-73
2023/04/18 10:35:57;;;;;;;6.07;3.53;;;17.30;97.10;;;;;;5079753;28;20212;-73
2023/04/18 10:38:25;;;;;;;8.27;4.40;;;17.20;96.90;;;;;;5085659;28;20292;-74
2023/04/18 10:40:52;;;;;;;7.87;3.90;;;17.10;96.80;;;;;;5083531;28;20204;-73
2023/04/18 10:43:20;;;;;;;4.20;3.57;;;17.10;96.90;;;;;;5081449;28;20195;-73
2023/04/18 10:46:12;;;;;;;5.97;4.63;;;16.90;96.90;;;;;;5080902;28;20192;-74
2023/04/18 10:48:39;;;;;;;8.23;4.60;;;16.70;96.70;;;;;;5078069;28;20201;-74
2023/04/18 10:51:19;;;;;;;5.27;3.87;;;16.60;96.80;;;;;;5064567;28;20197;-73
2023/04/18 10:53:51;;;;;;;7.50;4.23;;;16.60;97.00;;;;;;5078589;28;20299;-74
2023/04/18 10:56:20;;;;;;;6.63;4.00;;;16.60;96.90;;;;;;5071422;28;20638;-74
2023/04/18 10:58:52;;;;;;;7.03;3.47;;;16.60;96.90;;;;;;5088889;28;20311;-75
2023/04/18 11:01:27;;;;;;;6.83;3.93;;;16.50;97.00;;;;;;5059226;28;20776;-75
2023/04/18 11:03:55;;;;;;;4.07;3.33;;;16.50;97.10;;;;;;5052594;28;20220;-75
2023/04/18 11:06:22;;;;;;;9.13;4.43;;;16.50;97.20;;;;;;5067699;28;20230;-74
2023/04/18 11:08:49;;;;;;;5.03;4.50;;;16.50;97.10;;;;;;5059732;28;20188;-74
2023/04/18 11:11:16;;;;;;;3.63;3.33;;;16.50;96.90;;;;;;5058580;28;20259;-75
2023/04/18 11:13:59;;;;;;;4.87;3.67;;;16.40;97.00;;;;;;5085850;28;20202;-74
2023/04/18 11:16:27;;;;;;;6.07;3.67;;;16.40;97.10;;;;;;5083733;28;20219;-74
2023/04/18 11:18:54;;;;;;;10.50;5.77;;;16.30;97.10;;;;;;5062897;28;20616;-74
2023/04/18 11:21:21;;;;;;;6.03;4.17;;;16.30;97.00;;;;;;5068329;28;20193;-74
2023/04/18 11:23:48;;;;;;;8.33;5.43;;;16.30;97.00;;;;;;5061516;28;20203;-73
2023/04/18 11:26:18;;;;;;;8.50;5.13;;;16.30;97.00;;;;;;5059294;28;20219;-74
2023/04/18 11:28:51;;;;;;;6.60;3.90;;;16.40;97.00;;;;;;5080429;28;20580;-73
2023/04/18 11:31:23;;;;;;;10.73;6.37;;;16.40;97.00;;;;;;5081593;28;20713;-73
2023/04/18 11:33:56;;;;;;;14.43;8.07;;;16.30;96.80;;;;;;5074784;28;20190;-74
2023/04/18 11:36:23;;;;;;;7.10;5.20;;;16.20;96.60;;;;;;5063278;28;20197;-74
2023/04/18 11:38:50;;;;;;;5.93;4.80;;;16.10;96.70;;;;;;5073523;28;20794;-74
2023/04/18 11:41:17;;;;;;;8.73;5.77;;;16.00;96.90;;;;;;5059925;28;20208;-74
2023/04/18 11:43:46;;;;;;;10.77;7.40;;;16.00;97.00;;;;;;5057444;28;20196;-74
2023/04/18 11:46:13;;;;;;;10.40;7.17;;;15.90;96.90;;;;;;5065699;28;20196;-75
2023/04/18 11:48:44;;;;;;;7.13;5.37;;;15.80;97.10;;;;;;5061142;28;20668;-74
2023/04/18 11:51:33;;;;;;;10.33;6.23;;;15.70;97.20;;;;;;5066258;28;20204;-75
2023/04/18 11:54:02;;;;;;;8.83;5.97;;;15.70;97.30;;;;;;5083043;28;20197;-74
2023/04/18 11:56:29;;;;;;;10.73;6.30;;;15.70;97.30;;;;;;5075582;28;20641;-74
2023/04/18 11:58:57;;;;;;;8.57;5.33;;;15.70;97.40;;;;;;5080831;28;20193;-74
2023/04/18 12:01:26;;;;;;;15.53;6.27;;;15.70;97.50;;;;;;5085772;28;20199;-74
2023/04/18 12:04:01;;;;;;;17.83;7.33;;;15.80;97.50;;;;;;5073722;28;20269;-72
2023/04/18 12:06:45;;;;;;;15.93;7.10;;;15.80;97.30;;;;;;5049767;28;20750;-72
2023/04/18 12:09:14;;;;;;;7.70;5.20;;;15.90;97.20;;;;;;5075388;28;20185;-72
2023/04/18 12:11:41;;;;;;;14.03;5.90;;;16.00;97.30;;;;;;5058715;28;20204;-73
2023/04/18 12:14:19;;;;;;;13.00;5.03;;;16.10;97.30;;;;;;5083568;28;20203;-73
2023/04/18 12:16:48;;;;;;;21.90;6.33;;;16.20;97.30;;;;;;5071913;28;20601;-73
2023/04/18 12:19:19;;;;;;;18.57;5.40;;;16.30;97.00;;;;;;5062533;28;20545;-72
2023/04/18 12:21:56;;;;;;;16.30;5.60;;;16.40;97.00;;;;;;5063472;28;20255;-73
2023/04/18 12:24:25;;;;;;;21.43;5.10;;;16.50;96.90;;;;;;5073915;28;20200;-73
2023/04/18 12:26:52;;;;;;;13.97;5.50;;;16.50;96.80;;;;;;5064290;28;20284;-72
2023/04/18 12:29:19;;;;;;;20.77;4.90;;;16.60;96.60;;;;;;5063515;28;20643;-73
2023/04/18 12:31:47;;;;;;;6.70;3.83;;;16.60;96.60;;;;;;5060741;28;20740;-73
2023/04/18 12:34:15;;;;;;;17.50;4.77;;;16.60;96.70;;;;;;5055514;28;20494;-72
2023/04/18 12:36:43;;;;;;;32.10;5.27;;;16.60;96.50;;;;;;5073690;28;20193;-73
2023/04/18 12:39:10;;;;;;;15.47;4.37;;;16.70;96.60;;;;;;5083720;28;20555;-73
2023/04/18 12:41:37;;;;;;;16.53;4.40;;;16.70;96.50;;;;;;5082512;28;20197;-73
2023/04/18 12:44:05;;;;;;;8.80;4.00;;;16.70;96.50;;;;;;5064864;28;20475;-73
2023/04/18 12:46:32;;;;;;;11.63;3.73;;;16.80;96.50;;;;;;5079549;28;20201;-73
2023/04/18 12:49:00;;;;;;;16.73;5.23;;;16.80;96.40;;;;;;5093810;28;20304;-72
2023/04/18 12:51:31;;;;;;;7.53;4.20;;;16.80;96.10;;;;;;5076901;28;20194;-73
2023/04/18 12:53:59;;;;;;;19.10;4.60;;;16.80;96.00;;;;;;5081595;28;20197;-72
2023/04/18 12:56:26;;;;;;;10.23;4.83;;;16.70;95.80;;;;;;5049753;28;20630;-73
2023/04/18 12:58:56;;;;;;;17.57;6.03;;;16.70;95.70;;;;;;5079387;28;20197;-73